Time;durP1;ratioP1;P1;durP2;ratioP2;P2;SDS_P1;SDS_P2;PMS_P1;PMS_P2;Temp;Humidity;BMP_temperature;BMP_pressure;BME280_temperature;BME280_humidity;BME280_pressure;Samples;Min_cycle;Max_cycle;Signal;HPM_P1;HPM_P2
2022/04/16 12:12:27;;;;;;;14.55;10.70;;;;;;;4.70;75.45;98062.12;1889458;74;25541;-73
2022/04/16 12:14:55;;;;;;;12.33;10.03;;;;;;;4.72;75.11;98061.94;1839538;76;25710;-76
2022/04/16 12:17:31;;;;;;;13.98;10.68;;;;;;;4.79;74.99;98060.33;1838955;76;27397;-77
2022/04/16 12:20:06;;;;;;;12.47;8.20;;;;;;;4.85;75.07;98066.86;1853840;75;25815;-74
2022/04/16 12:22:54;;;;;;;10.38;8.10;;;;;;;4.87;75.00;98068.88;1854225;76;25806;-74
2022/04/16 12:25:23;;;;;;;9.10;7.62;;;;;;;4.81;74.62;98065.02;1856984;75;25755;-77
2022/04/16 12:27:57;;;;;;;9.90;7.67;;;;;;;4.76;74.84;98069.16;1862759;75;25478;-74
2022/04/16 12:30:31;;;;;;;10.63;8.13;;;;;;;4.84;74.96;98063.84;1776567;80;28088;-76
2022/04/16 12:33:01;;;;;;;9.73;7.65;;;;;;;4.96;75.09;98066.08;1776652;80;25809;-74
2022/04/16 12:35:31;;;;;;;9.20;7.80;;;;;;;5.08;75.06;98061.28;1746867;82;26648;-74
2022/04/16 12:37:59;;;;;;;12.35;8.83;;;;;;;5.23;75.04;98053.48;1711145;83;25786;-73
2022/04/16 12:40:29;;;;;;;10.28;8.18;;;;;;;5.38;74.88;98060.73;1704447;83;25861;-75
2022/04/16 12:42:57;;;;;;;9.93;7.87;;;;;;;5.58;74.68;98060.44;1711978;82;27395;-74
2022/04/16 12:45:26;;;;;;;13.22;8.53;;;;;;;5.78;74.53;98057.82;1711676;82;25780;-74
2022/04/16 12:47:53;;;;;;;10.38;8.45;;;;;;;6.02;74.10;98056.54;1705876;83;25873;-72
2022/04/16 12:50:20;;;;;;;9.28;7.12;;;;;;;6.23;74.05;98060.55;1705002;83;25922;-73
2022/04/16 12:52:47;;;;;;;10.08;7.80;;;;;;;6.39;73.47;98060.55;1697722;83;25844;-73
2022/04/16 12:55:15;;;;;;;11.88;8.43;;;;;;;6.50;73.07;98062.88;1709511;83;27378;-73
2022/04/16 12:57:44;;;;;;;11.53;8.23;;;;;;;6.56;72.84;98059.50;1708798;83;25777;-75
2022/04/16 13:00:13;;;;;;;11.33;8.35;;;;;;;6.55;72.54;98061.85;1711289;83;25820;-74
2022/04/16 13:02:43;;;;;;;11.05;7.60;;;;;;;6.54;72.30;98062.02;1706420;83;25747;-74
2022/04/16 13:05:11;;;;;;;10.95;7.83;;;;;;;6.52;72.11;98071.56;1704380;83;25879;-75
2022/04/16 13:07:39;;;;;;;12.47;8.63;;;;;;;6.48;71.92;98075.63;1700436;83;28233;-74
2022/04/16 13:10:09;;;;;;;11.53;8.93;;;;;;;6.33;71.65;98063.39;1704804;83;25870;-73
2022/04/16 13:12:35;;;;;;;10.93;8.63;;;;;;;6.22;71.81;98070.44;1705031;83;26537;-77
2022/04/16 13:15:02;;;;;;;12.80;8.18;;;;;;;6.27;71.76;98064.58;1667096;84;26380;-76
2022/04/16 13:17:30;;;;;;;10.43;7.90;;;;;;;6.34;71.63;98058.86;1727485;83;25698;-76
2022/04/16 13:19:57;;;;;;;15.32;10.03;;;;;;;6.42;71.59;98061.53;1723368;82;27436;-74
2022/04/16 13:22:23;;;;;;;13.05;8.50;;;;;;;6.53;71.76;98059.84;1700366;83;25830;-75
2022/04/16 13:24:50;;;;;;;14.65;10.25;;;;;;;6.64;71.87;98063.50;1706326;83;25922;-73
2022/04/16 13:27:16;;;;;;;10.98;8.13;;;;;;;6.76;71.61;98054.09;1708263;83;25789;-75
2022/04/16 13:29:45;;;;;;;11.40;8.23;;;;;;;6.83;71.27;98057.78;1708145;83;25311;-74
2022/04/16 13:32:14;;;;;;;11.60;7.75;;;;;;;6.74;70.87;98057.47;1706909;83;28320;-75
2022/04/16 13:34:43;;;;;;;11.53;7.87;;;;;;;6.59;70.86;98055.66;1796896;76;25703;-73
2022/04/16 13:37:10;;;;;;;12.68;8.58;;;;;;;6.57;70.84;98066.55;1863001;75;25718;-74
2022/04/16 13:42:22;;;;;;;12.37;9.25;;;;;;;6.53;71.14;98059.84;1832416;76;25764;-73
2022/04/16 13:44:50;;;;;;;15.48;8.65;;;;;;;6.49;70.81;98057.18;1826992;77;27355;-75
2022/04/16 13:49:49;;;;;;;13.73;7.77;;;;;;;6.52;70.76;98057.35;1711092;82;25817;-73
2022/04/16 13:52:16;;;;;;;10.60;6.15;;;;;;;6.52;70.76;98057.35;1710959;82;25845;-76
2022/04/16 13:54:44;;;;;;;11.35;5.35;;;;;;;6.54;69.96;98060.17;1711461;82;25779;-73
2022/04/16 13:57:11;;;;;;;6.92;5.45;;;;;;;6.61;69.71;98055.82;1730875;82;27728;-74
2022/04/16 13:59:39;;;;;;;8.63;5.60;;;;;;;6.71;69.75;98056.97;1740348;82;25793;-73
2022/04/16 14:02:07;;;;;;;7.22;5.60;;;;;;;6.86;69.65;98054.75;1737997;82;25842;-73
2022/04/16 14:07:20;;;;;;;9.98;5.65;;;;;;;6.98;69.61;98053.05;1736382;82;25771;-73
2022/04/16 14:09:47;;;;;;;8.48;6.10;;;;;;;6.99;69.06;98058.24;1732742;82;27972;-74
2022/04/16 14:12:15;;;;;;;8.65;4.78;;;;;;;6.93;68.99;98050.03;1710437;83;25778;-74
2022/04/16 14:14:43;;;;;;;9.33;5.10;;;;;;;6.98;68.64;98061.09;1711111;82;25869;-73
2022/04/16 14:17:10;;;;;;;8.10;5.65;;;;;;;7.01;68.53;98058.05;1713285;82;25734;-74
2022/04/16 14:19:37;;;;;;;9.20;5.50;;;;;;;6.99;68.08;98053.38;1731150;81;26711;-74
2022/04/16 14:22:06;;;;;;;11.88;6.87;;;;;;;6.76;68.13;98054.09;1740523;82;28061;-75
2022/04/16 14:24:33;;;;;;;11.40;7.03;;;;;;;6.66;68.38;98054.78;1736543;82;25852;-74
2022/04/16 14:27:00;;;;;;;16.57;10.32;;;;;;;6.68;68.56;98056.80;1710967;83;25810;-74
2022/04/16 14:29:27;;;;;;;9.45;6.22;;;;;;;6.74;68.91;98054.79;1710944;83;25804;-73
2022/04/16 14:31:54;;;;;;;9.88;5.40;;;;;;;6.85;68.41;98053.08;1714395;82;25868;-75
2022/04/16 14:34:20;;;;;;;14.15;6.40;;;;;;;7.04;68.42;98053.67;1711002;82;28181;-73
2022/04/16 14:36:47;;;;;;;9.63;6.37;;;;;;;7.26;68.43;98051.56;1711031;83;25832;-75
2022/04/16 14:39:14;;;;;;;9.00;5.97;;;;;;;7.39;67.76;98060.41;1711374;82;25790;-73
2022/04/16 14:41:41;;;;;;;7.80;5.87;;;;;;;7.45;67.25;98056.53;1710935;82;25853;-73
2022/04/16 14:44:08;;;;;;;8.13;5.22;;;;;;;7.40;66.63;98060.23;1711209;82;25742;-75
2022/04/16 14:46:36;;;;;;;10.58;6.83;;;;;;;7.37;66.26;98059.23;1766944;78;27460;-74
2022/04/16 14:49:04;;;;;;;6.83;4.92;;;;;;;7.39;66.60;98062.59;1853373;77;25718;-73
2022/04/16 14:51:33;;;;;;;9.03;4.87;;;;;;;7.42;66.28;98062.24;1828987;77;25740;-74
2022/04/16 14:54:01;;;;;;;14.18;8.45;;;;;;;7.43;65.49;98062.58;1846441;76;26071;-74
2022/04/16 14:56:27;;;;;;;7.37;5.33;;;;;;;7.43;66.17;98061.23;1852704;76;26739;-75
2022/04/16 14:58:56;;;;;;;10.03;6.50;;;;;;;7.44;65.82;98069.62;1850205;76;27334;-73
2022/04/16 15:01:22;;;;;;;15.53;8.85;;;;;;;7.46;65.79;98064.92;1844456;76;25643;-74
2022/04/16 15:03:49;;;;;;;16.45;8.60;;;;;;;7.47;65.70;98071.13;1844045;75;25730;-76
2022/04/16 15:06:16;;;;;;;14.23;8.15;;;;;;;7.47;65.78;98071.97;1845857;76;25645;-73
2022/04/16 15:08:42;;;;;;;18.98;10.78;;;;;;;7.49;65.54;98073.95;1844666;76;26269;-74
2022/04/16 15:11:11;;;;;;;17.62;10.45;;;;;;;7.47;65.08;98077.84;1852974;75;27342;-74
2022/04/16 15:13:38;;;;;;;99.65;56.10;;;;;;;7.42;64.97;98072.15;1875681;75;25752;-74
2022/04/16 15:16:05;;;;;;;17.57;10.75;;;;;;;7.41;64.91;98075.34;1875020;75;25593;-75
2022/04/16 15:18:33;;;;;;;18.02;10.95;;;;;;;7.38;64.76;98083.73;1877037;75;26458;-73
2022/04/16 15:21:00;;;;;;;10.88;6.30;;;;;;;7.30;64.60;98077.07;1889968;75;26722;-75
2022/04/16 15:23:27;;;;;;;9.33;5.33;;;;;;;7.21;63.31;98072.75;1878377;75;27402;-77
2022/04/16 15:25:54;;;;;;;11.90;7.22;;;;;;;7.01;63.25;98072.30;1868130;76;26056;-74
2022/04/16 15:28:21;;;;;;;12.15;7.60;;;;;;;6.85;63.48;98072.37;1868246;76;25773;-74
2022/04/16 15:30:48;;;;;;;23.27;15.68;;;;;;;6.78;63.47;98068.67;1866903;76;25757;-73
2022/04/16 15:33:15;;;;;;;11.75;6.90;;;;;;;6.73;63.49;98075.92;1891631;75;25668;-73
2022/04/16 15:35:41;;;;;;;4.53;3.67;;;;;;;6.69;63.33;98081.28;1900129;75;28177;-74
2022/04/16 15:38:08;;;;;;;10.28;4.78;;;;;;;6.67;63.00;98073.91;1882153;75;25738;-73
2022/04/16 15:40:34;;;;;;;8.83;5.33;;;;;;;6.59;62.90;98073.92;1903788;75;25745;-75
2022/04/16 15:43:01;;;;;;;16.27;6.50;;;;;;;6.53;63.04;98076.43;1903963;74;25657;-73
2022/04/16 15:45:28;;;;;;;12.82;7.60;;;;;;;6.53;62.95;98077.27;1930807;73;25723;-74
2022/04/16 15:47:55;;;;;;;9.58;5.62;;;;;;;6.56;62.91;98081.47;1940751;73;28295;-74
2022/04/16 15:50:22;;;;;;;16.48;6.42;;;;;;;6.58;62.59;98088.34;1940648;73;25642;-73
2022/04/16 15:52:48;;;;;;;12.28;8.00;;;;;;;6.55;62.35;98087.33;1940880;73;25682;-71
2022/04/16 15:55:15;;;;;;;6.80;4.47;;;;;;;6.44;62.11;98085.00;1911166;73;25659;-74
2022/04/16 15:57:42;;;;;;;9.43;4.62;;;;;;;6.33;62.16;98085.34;1903997;74;26356;-77
2022/04/16 16:00:10;;;;;;;23.22;8.70;;;;;;;6.33;62.39;98097.41;1899183;75;27252;-74
2022/04/16 16:02:37;;;;;;;39.25;13.48;;;;;;;6.35;62.50;98093.56;1903893;75;25649;-76
2022/04/16 16:05:08;;;;;;;41.50;14.73;;;;;;;6.36;62.64;98099.77;1868795;76;25601;-74
2022/04/16 16:07:36;;;;;;;10.38;6.30;;;;;;;6.35;62.52;98102.11;1904063;75;25436;-77
2022/04/16 16:10:04;;;;;;;20.77;9.33;;;;;;;6.32;62.64;98097.07;1903732;75;25662;-74
2022/04/16 16:12:30;;;;;;;15.68;7.62;;;;;;;6.31;62.63;98106.95;1866657;76;27472;-74
2022/04/16 16:15:00;;;;;;;10.48;5.90;;;;;;;6.34;62.58;98103.11;1867117;76;25732;-73
2022/04/16 16:17:25;;;;;;;7.22;3.80;;;;;;;6.41;62.32;98112.98;1889024;75;26619;-77
2022/04/16 16:19:52;;;;;;;6.20;3.55;;;;;;;6.46;61.70;98103.95;1889062;75;25736;-73
2022/04/16 16:22:19;;;;;;;13.80;8.48;;;;;;;6.47;61.12;98114.17;1879675;75;25610;-76
2022/04/16 16:24:46;;;;;;;11.25;6.55;;;;;;;6.43;61.35;98112.82;1886920;75;27548;-73
2022/04/16 16:27:12;;;;;;;9.15;4.47;;;;;;;6.38;61.54;98117.87;1889029;75;25576;-74
2022/04/16 16:29:39;;;;;;;9.65;4.62;;;;;;;6.37;61.17;98111.66;1889022;75;25673;-73
2022/04/16 16:32:06;;;;;;;15.15;5.95;;;;;;;6.40;61.15;98115.86;1888902;75;25621;-73
2022/04/16 16:34:33;;;;;;;11.78;5.47;;;;;;;6.44;61.20;98112.66;1888961;75;25155;-73
2022/04/16 16:37:02;;;;;;;13.62;6.95;;;;;;;6.38;60.89;98120.05;1889071;75;27345;-74
2022/04/16 16:39:28;;;;;;;9.40;5.30;;;;;;;6.34;61.27;98120.53;1888730;75;25914;-73
2022/04/16 16:41:54;;;;;;;9.18;4.65;;;;;;;6.21;61.12;98122.88;1879698;75;25675;-76
2022/04/16 16:44:22;;;;;;;9.60;7.17;;;;;;;6.19;61.42;98123.53;1889064;75;25645;-75
2022/04/16 16:46:49;;;;;;;11.35;5.70;;;;;;;6.11;60.91;98123.88;1856433;75;25876;-73
2022/04/16 16:49:16;;;;;;;9.50;4.95;;;;;;;6.02;60.73;98120.86;1878697;75;27369;-73
2022/04/16 16:54:13;;;;;;;16.48;7.87;;;;;;;6.03;60.80;98127.90;1800629;78;25743;-73
2022/04/16 16:56:39;;;;;;;14.60;8.05;;;;;;;6.02;60.82;98125.37;1806084;78;26556;-76
2022/04/16 16:59:09;;;;;;;14.58;6.62;;;;;;;6.00;60.91;98126.88;1789611;78;25992;-73
2022/04/16 17:01:37;;;;;;;8.93;4.92;;;;;;;5.97;60.67;98138.42;1832052;77;28297;-75
2022/04/16 17:06:50;;;;;;;5.95;3.65;;;;;;;5.90;60.78;98140.09;1815612;78;25830;-73
2022/04/16 17:09:16;;;;;;;30.95;16.42;;;;;;;5.96;60.34;98144.28;1826063;77;25826;-73
2022/04/16 17:11:43;;;;;;;20.15;11.75;;;;;;;5.98;60.40;98152.16;1825481;78;25857;-77
2022/04/16 17:19:40;;;;;;;9.03;6.47;;;;;;;5.79;60.29;98157.28;1859231;77;25778;-73
2022/04/16 17:22:07;;;;;;;13.55;7.12;;;;;;;5.72;60.36;98168.30;1859464;77;25742;-77
2022/04/16 17:24:33;;;;;;;15.72;8.53;;;;;;;5.72;60.18;98161.59;1827239;77;26065;-74
2022/04/16 17:27:00;;;;;;;11.40;6.15;;;;;;;5.72;60.03;98160.26;1822064;78;27536;-77
2022/04/16 17:29:27;;;;;;;12.15;7.72;;;;;;;5.66;59.68;98166.28;1845318;77;25840;-75
2022/04/16 17:31:58;;;;;;;11.38;5.92;;;;;;;5.60;59.83;98170.92;1859196;77;25754;-74
2022/04/16 17:34:24;;;;;;;15.50;8.35;;;;;;;5.57;59.81;98176.59;1859287;77;25785;-73
2022/04/16 17:36:52;;;;;;;10.15;5.97;;;;;;;5.49;59.77;98172.06;1859374;77;25707;-73
2022/04/16 17:39:18;;;;;;;9.15;5.33;;;;;;;5.47;60.27;98181.25;1859475;77;27596;-73
2022/04/16 17:42:06;;;;;;;9.65;5.80;;;;;;;5.44;59.79;98185.08;1859243;77;25731;-72
2022/04/16 17:44:13;;;;;;;8.85;5.53;;;;;;;5.39;59.51;98188.75;1855085;77;25877;-77
2022/04/16 17:46:40;;;;;;;9.03;4.55;;;;;;;5.40;59.59;98188.59;1828456;77;25895;-73
2022/04/16 17:49:06;;;;;;;10.70;6.03;;;;;;;5.42;59.53;98190.62;1858404;77;25809;-73
2022/04/16 17:51:33;;;;;;;8.53;5.15;;;;;;;5.46;59.72;98190.27;1900660;74;27188;-74
2022/04/16 17:54:00;;;;;;;8.65;5.10;;;;;;;5.48;59.72;98198.50;1919058;74;25646;-76
2022/04/16 17:56:26;;;;;;;12.28;6.62;;;;;;;5.50;60.00;98192.98;1919017;74;25736;-73
2022/04/16 17:58:53;;;;;;;16.00;8.53;;;;;;;5.47;60.10;98202.17;1918904;74;25676;-76
2022/04/16 18:01:19;;;;;;;9.93;6.28;;;;;;;5.45;60.34;98201.48;1919143;74;25687;-73
2022/04/16 18:03:46;;;;;;;7.90;5.17;;;;;;;5.36;59.83;98203.29;1918994;74;27501;-76
2022/04/16 18:06:13;;;;;;;10.85;5.83;;;;;;;5.31;59.58;98212.28;1919137;74;25700;-73
2022/04/16 18:08:41;;;;;;;13.13;6.60;;;;;;;5.28;59.74;98215.30;1919115;74;25709;-77
2022/04/16 18:11:08;;;;;;;16.52;8.95;;;;;;;5.27;59.77;98218.97;1918966;74;26335;-73
2022/04/16 18:13:37;;;;;;;15.78;8.38;;;;;;;5.27;59.73;98221.66;1918195;74;25719;-76
2022/04/16 18:16:04;;;;;;;8.28;5.03;;;;;;;5.32;59.76;98231.86;1918320;74;28226;-73
2022/04/16 18:18:30;;;;;;;8.05;5.12;;;;;;;5.25;59.70;98232.17;1918221;74;25717;-74
2022/04/16 18:20:57;;;;;;;13.20;6.58;;;;;;;5.19;59.61;98236.33;1908036;74;25681;-73
2022/04/16 18:23:23;;;;;;;7.90;5.15;;;;;;;5.21;59.49;98241.00;1893483;75;25740;-73
2022/04/16 18:25:51;;;;;;;6.40;4.10;;;;;;;5.16;59.56;98237.98;1894032;75;25684;-73
2022/04/16 18:28:18;;;;;;;5.75;3.87;;;;;;;5.11;59.49;98246.13;1893965;75;27369;-74
2022/04/16 18:30:45;;;;;;;6.95;4.62;;;;;;;5.05;59.51;98242.25;1894090;75;25823;-73
2022/04/16 18:33:12;;;;;;;8.63;4.75;;;;;;;5.03;59.40;98245.58;1894098;75;25627;-76
2022/04/16 18:35:39;;;;;;;12.88;5.65;;;;;;;4.98;59.32;98250.54;1857547;76;25401;-78
2022/04/16 18:38:06;;;;;;;7.37;4.35;;;;;;;4.97;59.64;98246.18;1857415;77;25671;-73
2022/04/16 18:40:35;;;;;;;7.08;4.03;;;;;;;4.98;59.53;98245.19;1857071;77;27395;-73
2022/04/16 18:43:04;;;;;;;9.75;5.20;;;;;;;5.01;59.95;98248.90;1866443;76;25709;-73
2022/04/16 18:45:30;;;;;;;7.75;4.67;;;;;;;5.02;59.91;98247.91;1866708;76;25725;-75
2022/04/16 18:47:56;;;;;;;7.92;4.50;;;;;;;5.01;59.99;98252.91;1866698;76;26167;-73
2022/04/16 18:50:23;;;;;;;12.00;6.65;;;;;;;4.97;59.76;98252.88;1866853;76;25649;-74
2022/04/16 18:52:49;;;;;;;13.35;6.90;;;;;;;4.99;59.85;98250.89;1865612;76;27860;-76
2022/04/16 18:55:16;;;;;;;17.85;8.85;;;;;;;4.99;59.85;98258.91;1867602;75;25637;-73
2022/04/16 18:57:43;;;;;;;17.77;8.65;;;;;;;4.99;59.99;98258.91;1866591;76;26637;-73
2022/04/16 19:00:12;;;;;;;8.60;4.62;;;;;;;4.99;60.23;98257.58;1866709;76;25860;-73
2022/04/16 19:08:13;;;;;;;13.80;7.12;;;;;;;4.82;59.71;98265.14;1866309;76;25611;-75
2022/04/16 19:10:39;;;;;;;8.78;4.92;;;;;;;4.85;60.01;98258.13;1866667;76;25452;-75
2022/04/16 19:13:08;;;;;;;11.88;7.05;;;;;;;4.88;60.15;98260.50;1860849;76;25665;-73
2022/04/16 19:15:35;;;;;;;9.05;5.33;;;;;;;4.86;59.95;98267.83;1867702;75;25813;-76
2022/04/16 19:18:02;;;;;;;8.30;4.92;;;;;;;4.82;59.75;98261.97;1886024;75;27394;-73
2022/04/16 19:20:28;;;;;;;7.47;4.42;;;;;;;4.82;59.84;98259.80;1901902;75;25959;-73
2022/04/16 19:23:14;;;;;;;7.65;4.83;;;;;;;4.82;59.78;98255.78;1902002;75;25776;-76
2022/04/16 19:25:24;;;;;;;8.40;5.15;;;;;;;4.82;60.17;98259.80;1896229;75;25717;-73
2022/04/16 19:27:52;;;;;;;11.65;6.75;;;;;;;4.80;59.77;98252.42;1902232;75;25676;-73
2022/04/16 19:30:19;;;;;;;23.87;15.03;;;;;;;4.77;59.99;98250.88;1902182;75;27390;-73
2022/04/16 19:32:46;;;;;;;29.37;17.55;;;;;;;4.81;60.41;98260.30;1902074;75;25468;-75
2022/04/16 19:35:13;;;;;;;20.40;12.00;;;;;;;4.85;60.49;98257.63;1902070;75;25745;-73
2022/04/16 19:37:40;;;;;;;15.85;8.58;;;;;;;4.86;60.60;98253.96;1901994;75;25706;-73
2022/04/16 19:40:09;;;;;;;13.35;7.20;;;;;;;4.82;60.38;98262.47;1901795;75;25702;-73
2022/04/16 19:42:36;;;;;;;18.82;8.20;;;;;;;4.81;60.68;98260.79;1901634;75;28279;-73
2022/04/16 19:45:03;;;;;;;16.20;9.03;;;;;;;4.81;60.98;98264.30;1901622;75;25697;-73
2022/04/16 19:47:30;;;;;;;20.97;11.48;;;;;;;4.79;61.10;98266.78;1902121;75;25704;-73
2022/04/16 19:49:57;;;;;;;31.25;16.62;;;;;;;4.70;60.72;98264.05;1901937;75;25696;-75
2022/04/16 19:52:24;;;;;;;77.65;26.02;;;;;;;4.67;60.88;98273.70;1902160;75;25781;-75
2022/04/16 19:54:50;;;;;;;73.67;25.92;;;;;;;4.69;61.08;98269.55;1902025;75;27546;-72
2022/04/16 19:57:18;;;;;;;48.98;18.67;;;;;;;4.73;61.45;98273.57;1901469;75;25610;-74
2022/04/16 19:59:46;;;;;;;42.70;19.77;;;;;;;4.76;61.37;98275.11;1901956;75;25705;-72
2022/04/16 20:02:15;;;;;;;30.95;16.15;;;;;;;4.77;61.46;98268.27;1901912;75;25661;-73
2022/04/16 20:04:42;;;;;;;41.33;19.32;;;;;;;4.77;61.03;98274.12;1901759;75;25775;-75
2022/04/16 20:07:10;;;;;;;91.87;44.55;;;;;;;4.74;61.36;98279.77;1902128;75;27395;-77
2022/04/16 20:12:22;;;;;;;58.00;30.30;;;;;;;4.76;61.64;98278.63;1874000;76;25709;-74
2022/04/16 20:14:48;;;;;;;56.50;28.07;;;;;;;4.77;61.55;98280.30;1872699;75;25764;-78
2022/04/16 20:17:15;;;;;;;51.85;27.65;;;;;;;4.79;61.75;98274.80;1869207;76;25647;-73
2022/04/16 20:19:41;;;;;;;65.47;33.80;;;;;;;4.82;61.94;98276.69;1876606;76;27381;-75
2022/04/16 20:22:08;;;;;;;110.55;52.95;;;;;;;4.83;62.33;98277.00;1866323;76;25663;-73
2022/04/16 20:24:35;;;;;;;98.60;41.28;;;;;;;4.83;62.64;98274.86;1866691;76;25202;-73
2022/04/16 20:27:02;;;;;;;157.45;53.28;;;;;;;4.80;62.86;98279.16;1866802;76;26103;-73
2022/04/16 20:29:29;;;;;;;74.37;33.78;;;;;;;4.80;62.99;98280.50;1866726;76;25688;-73
2022/04/16 20:31:56;;;;;;;68.95;27.73;;;;;;;4.77;63.03;98280.30;1866798;76;27399;-75
2022/04/16 20:34:23;;;;;;;36.15;18.82;;;;;;;4.79;62.89;98281.49;1866811;76;25815;-73
2022/04/16 20:36:50;;;;;;;46.28;20.12;;;;;;;4.80;62.94;98276.49;1866867;76;25816;-75
2022/04/16 20:39:18;;;;;;;37.67;19.73;;;;;;;4.80;62.91;98284.02;1866842;76;25744;-74
2022/04/16 20:47:16;;;;;;;51.55;24.43;;;;;;;4.78;63.66;98273.13;1866815;76;25700;-76
2022/04/16 20:49:43;;;;;;;69.25;33.60;;;;;;;4.75;63.79;98266.73;1866988;76;25593;-74
2022/04/16 20:54:55;;;;;;;51.68;26.37;;;;;;;4.59;63.91;98269.59;1870413;76;25697;-74
2022/04/16 20:57:22;;;;;;;53.20;25.75;;;;;;;4.56;64.24;98272.60;1882182;75;28332;-73
2022/04/16 20:59:49;;;;;;;64.15;32.93;;;;;;;4.54;64.59;98265.22;1884346;76;25648;-73
2022/04/16 21:02:15;;;;;;;64.27;32.33;;;;;;;4.48;64.74;98267.16;1884735;76;25739;-73
2022/04/16 21:04:42;;;;;;;76.67;38.15;;;;;;;4.46;64.94;98263.82;1884758;76;25588;-73
2022/04/16 21:07:09;;;;;;;76.60;37.60;;;;;;;4.47;65.07;98264.13;1884718;76;25635;-73
2022/04/16 21:09:35;;;;;;;73.85;36.48;;;;;;;4.43;65.11;98258.77;1885005;76;28082;-73
2022/04/16 21:12:02;;;;;;;67.65;32.33;;;;;;;4.43;65.48;98266.78;1873852;76;25735;-75
2022/04/16 21:14:29;;;;;;;54.25;28.65;;;;;;;4.42;65.67;98269.11;1871675;76;25676;-73
2022/04/16 21:16:56;;;;;;;63.58;28.87;;;;;;;4.41;65.77;98264.75;1870906;76;25709;-72
2022/04/16 21:19:22;;;;;;;73.15;34.70;;;;;;;4.41;65.88;98259.91;1866357;76;25684;-73
2022/04/16 21:21:49;;;;;;;74.75;38.88;;;;;;;4.35;65.95;98253.31;1870846;75;27338;-75
2022/04/16 21:24:15;;;;;;;63.25;31.33;;;;;;;4.28;66.05;98254.93;1870791;75;25614;-76
2022/04/16 21:26:42;;;;;;;52.88;28.70;;;;;;;4.22;65.99;98251.05;1866361;76;25737;-76
2022/04/16 21:29:11;;;;;;;45.33;23.98;;;;;;;4.21;66.20;98248.52;1870842;76;25668;-73
2022/04/16 21:31:37;;;;;;;40.03;23.00;;;;;;;4.19;66.10;98251.83;1870952;76;25631;-74
2022/04/16 21:34:03;;;;;;;38.05;20.52;;;;;;;4.19;66.41;98254.51;1870911;76;27512;-77
2022/04/16 21:36:30;;;;;;;49.38;21.75;;;;;;;4.18;66.61;98254.16;1870914;76;25658;-73
2022/04/16 21:38:58;;;;;;;72.15;31.65;;;;;;;4.17;66.57;98256.48;1870746;76;25814;-74
2022/04/16 21:41:25;;;;;;;96.60;37.80;;;;;;;4.15;66.74;98261.97;1866853;76;25647;-74
2022/04/16 21:43:52;;;;;;;81.57;33.48;;;;;;;4.16;66.45;98261.48;1871002;76;25742;-73
2022/04/16 21:46:19;;;;;;;55.55;26.23;;;;;;;4.18;66.65;98263.02;1870987;76;27239;-73
2022/04/16 21:48:47;;;;;;;51.63;24.43;;;;;;;4.19;66.64;98257.17;1870874;76;25683;-73
2022/04/16 21:51:13;;;;;;;44.33;21.25;;;;;;;4.19;66.66;98266.53;1870937;76;25701;-73
2022/04/16 21:53:40;;;;;;;47.15;21.68;;;;;;;4.23;66.83;98270.06;1870953;76;25725;-75
2022/04/16 21:56:07;;;;;;;44.55;22.30;;;;;;;4.25;66.85;98267.25;1871027;76;25598;-77
2022/04/16 21:58:34;;;;;;;48.10;23.12;;;;;;;4.26;66.99;98260.42;1871007;76;27362;-72
2022/04/16 22:01:15;;;;;;;51.05;22.77;;;;;;;4.25;67.04;98264.58;1870780;76;25975;-73
2022/04/16 22:03:43;;;;;;;47.73;23.00;;;;;;;4.24;67.24;98264.23;1870940;75;25683;-73
2022/04/16 22:06:11;;;;;;;49.75;23.55;;;;;;;4.18;67.38;98268.36;1871074;76;25666;-73
2022/04/16 22:08:39;;;;;;;49.27;22.98;;;;;;;4.15;67.37;98270.48;1870963;76;25713;-74
2022/04/16 22:11:06;;;;;;;55.63;24.75;;;;;;;4.09;67.55;98267.93;1867020;76;27605;-76
2022/04/16 22:13:32;;;;;;;48.48;22.58;;;;;;;4.07;67.54;98268.58;1867068;75;25757;-75
2022/04/16 22:15:59;;;;;;;51.20;24.32;;;;;;;4.04;67.50;98266.19;1887707;75;25686;-73
2022/04/16 22:18:26;;;;;;;51.55;23.62;;;;;;;3.97;67.48;98270.47;1861967;76;25598;-77
2022/04/16 22:20:52;;;;;;;50.92;23.62;;;;;;;3.93;67.71;98260.56;1874230;76;25904;-74
2022/04/16 22:23:19;;;;;;;46.68;22.15;;;;;;;3.94;67.85;98262.73;1872985;75;27382;-73
2022/04/16 22:25:46;;;;;;;46.00;20.72;;;;;;;3.91;67.97;98264.36;1872336;76;25800;-73
2022/04/16 22:28:12;;;;;;;42.55;21.07;;;;;;;3.87;68.05;98259.80;1869910;76;25748;-77
2022/04/16 22:30:39;;;;;;;48.58;21.68;;;;;;;3.82;68.20;98259.42;1874995;76;25447;-73
2022/04/16 22:33:05;;;;;;;46.20;21.70;;;;;;;3.76;68.17;98257.33;1876464;76;25409;-73
2022/04/16 22:35:33;;;;;;;44.40;19.30;;;;;;;3.75;68.33;98258.31;1873104;76;27355;-73
2022/04/16 22:43:15;;;;;;;41.23;19.23;;;;;;;3.81;68.76;98249.73;1776081;79;25748;-76
2022/04/16 22:45:44;;;;;;;42.90;19.48;;;;;;;3.75;68.68;98249.46;1778539;80;25849;-77
2022/04/16 22:48:11;;;;;;;38.75;18.57;;;;;;;3.72;68.87;98249.78;1786871;79;27421;-74
2022/04/16 22:50:39;;;;;;;45.52;19.85;;;;;;;3.72;69.02;98253.30;1785855;79;25741;-75
2022/04/16 22:53:06;;;;;;;59.50;25.48;;;;;;;3.71;69.19;98246.27;1782397;79;25757;-75
2022/04/16 22:55:32;;;;;;;55.52;23.83;;;;;;;3.71;69.32;98243.60;1787054;79;25736;-73
2022/04/16 22:58:00;;;;;;;43.95;21.52;;;;;;;3.64;69.21;98246.50;1788740;79;25737;-77
2022/04/16 23:00:28;;;;;;;44.88;19.75;;;;;;;3.59;69.36;98240.28;1786283;79;28138;-73
2022/04/16 23:02:54;;;;;;;38.80;19.35;;;;;;;3.55;69.47;98239.38;1786599;79;25818;-73
2022/04/16 23:05:21;;;;;;;41.92;20.43;;;;;;;3.56;69.61;98234.39;1788693;79;25782;-73
2022/04/16 23:07:48;;;;;;;51.10;22.70;;;;;;;3.58;69.72;98236.42;1786640;79;26305;-73
2022/04/16 23:10:14;;;;;;;50.88;23.55;;;;;;;3.59;69.79;98242.11;1786819;79;25837;-73
2022/04/16 23:12:41;;;;;;;44.53;19.85;;;;;;;3.59;69.86;98235.44;1710002;83;27151;-74
2022/04/16 23:17:54;;;;;;;30.62;15.80;;;;;;;3.59;69.91;98235.44;1687786;84;25863;-75
2022/04/16 23:20:21;;;;;;;34.10;16.35;;;;;;;3.60;69.84;98234.45;1701174;81;26188;-74
2022/04/16 23:22:48;;;;;;;32.28;16.50;;;;;;;3.60;69.94;98237.12;1775180;80;25759;-74
2022/04/16 23:25:14;;;;;;;30.90;16.70;;;;;;;3.58;70.00;98231.92;1774389;80;27422;-74
2022/04/16 23:27:41;;;;;;;33.70;17.73;;;;;;;3.56;69.99;98229.05;1774236;80;25771;-75
2022/04/16 23:30:10;;;;;;;35.08;17.30;;;;;;;3.56;70.06;98226.38;1774899;80;25712;-72
2022/04/16 23:32:36;;;;;;;42.55;18.95;;;;;;;3.54;70.10;98227.86;1774766;80;25830;-75
2022/04/16 23:35:04;;;;;;;40.43;20.20;;;;;;;3.53;70.20;98225.33;1773172;80;25720;-74
2022/04/16 23:37:31;;;;;;;42.17;20.37;;;;;;;3.48;70.22;98228.95;1826688;76;27325;-77
2022/04/16 23:39:58;;;;;;;50.78;24.15;;;;;;;3.44;70.32;98223.55;1868632;76;25670;-73
2022/04/16 23:42:24;;;;;;;50.23;23.75;;;;;;;3.43;70.40;98221.38;1862630;77;25640;-73
2022/04/16 23:47:36;;;;;;;47.30;23.27;;;;;;;3.39;70.54;98221.80;1834000;75;25963;-73
2022/04/16 23:50:03;;;;;;;46.73;22.55;;;;;;;3.37;70.62;98221.14;1829060;78;27446;-76
2022/04/16 23:52:30;;;;;;;44.50;23.15;;;;;;;3.36;70.57;98220.78;1828964;78;25672;-73
2022/04/16 23:54:57;;;;;;;44.80;22.25;;;;;;;3.33;70.55;98219.73;1829049;78;25728;-76
2022/04/16 23:57:27;;;;;;;44.75;22.73;;;;;;;3.31;70.58;98216.37;1828809;78;25982;-75
2022/04/16 23:59:53;;;;;;;40.43;20.55;;;;;;;3.30;70.60;98218.69;1829008;78;25674;-74
